עמוד ראשי
METAR-TAF:

METAR-TAF

שדות תעופה :

Acajutla, אל סלוודור

קו רוחב: 13-34N, קו אורך: 089-50W, גובה: 15מטר

תצפית מזג אוויר נוכחית

הדו"ח נערך לפני 14 שעות ו 3דקות, בשעה 20:50 UTC
רוח 3קשר מכיוון מערב/דרום-מערב
טמפרטורת 33 צלסיוס
לחות 71%
לחץ 1009 hPa
ראות 10 קילומטר או יותר
מעט עננים בגובה 3000רגל

METAR: MSAC 282050Z 25003KT 9999 FEW030 33/27 Q1008 A2979

זמן: 04:53 (10:53 UTC)


TAF: חסר

תצפיות ותחזיות מזג אוויר לגבי יותר מ- 4,000 שדות תעופה ברחבי העולם. דוחות METAR ו- TAF.

התחנות הזמינות מסומנות בנקודות צהובות ואדומות על גבי המפה.

העבר את העכבר לנקודה הצבעונית על מנת לראות את שם התחנה.

לאחר מכן, לחץ כדי לראות את תוכן ואת תחזיות מזג האוויר.

כדי לשנות את המפה: לחץ על הכפתורים הירוקים עם הפלוס השחור כדי להתקרב; על הכפתור הירוק עם המקף כדי להתרחק; או בחיצים הירוקים למפות סמוכות.


METAR-TAF: